Time;durP1;ratioP1;P1;durP2;ratioP2;P2;SDS_P1;SDS_P2;PMS_P1;PMS_P2;Temp;Humidity;BMP_temperature;BMP_pressure;BME280_temperature;BME280_humidity;BME280_pressure;Samples;Min_cycle;Max_cycle;Signal;HPM_P1;HPM_P2
2022/01/28 00:00:32;;;;;;;23.53;5.40;;;5.20;82.90;;;;;;4973514;28;20191;-91
2022/01/28 00:03:07;;;;;;;28.90;4.40;;;5.20;83.20;;;;;;4994658;28;20177;-91
2022/01/28 00:05:34;;;;;;;15.13;4.47;;;5.10;83.00;;;;;;4994408;28;20229;-91
2022/01/28 00:08:01;;;;;;;16.63;3.07;;;5.00;83.20;;;;;;4994388;28;20578;-91
2022/01/28 00:10:28;;;;;;;14.67;3.87;;;4.90;83.70;;;;;;4994009;28;20211;-91
2022/01/28 00:15:32;;;;;;;10.17;2.97;;;4.60;83.50;;;;;;4996258;28;20249;-91
2022/01/28 00:39:43;;;;;;;32.47;5.90;;;4.60;85.40;;;;;;4994659;28;20171;-90
2022/01/28 00:42:09;;;;;;;45.73;9.20;;;4.60;85.20;;;;;;4994018;28;20240;-90
2022/01/28 00:44:35;;;;;;;27.13;4.43;;;4.70;84.50;;;;;;4994245;28;20210;-92
2022/01/28 00:47:01;;;;;;;20.67;5.33;;;4.60;84.00;;;;;;4993475;28;20178;-91
2022/01/28 00:49:27;;;;;;;27.03;5.20;;;4.80;83.30;;;;;;4993165;28;20205;-91
2022/01/28 00:51:52;;;;;;;23.70;4.47;;;4.70;83.10;;;;;;4993595;28;20217;-91
2022/01/28 00:54:18;;;;;;;28.03;5.00;;;4.70;82.90;;;;;;4993362;28;20526;-91
2022/01/28 00:56:45;;;;;;;18.73;4.20;;;4.60;83.20;;;;;;4993370;28;20246;-91
2022/01/28 00:59:11;;;;;;;14.07;3.67;;;4.60;83.40;;;;;;4993706;28;20194;-91
2022/01/28 01:01:37;;;;;;;27.50;5.30;;;4.60;83.50;;;;;;4994021;28;20231;-90
2022/01/28 01:04:04;;;;;;;23.20;4.83;;;4.60;83.60;;;;;;4978427;28;20185;-90
2022/01/28 01:06:30;;;;;;;26.70;6.13;;;4.60;84.00;;;;;;4993708;28;20175;-91
2022/01/28 01:08:57;;;;;;;33.43;4.30;;;4.60;83.70;;;;;;4993271;28;20206;-91
2022/01/28 01:11:24;;;;;;;21.63;4.70;;;4.60;83.80;;;;;;4993441;28;20202;-91
2022/01/28 01:13:51;;;;;;;31.73;5.13;;;4.60;84.10;;;;;;4993872;28;20176;-91
2022/01/28 01:16:23;;;;;;;35.17;6.23;;;4.50;84.60;;;;;;4994835;28;20174;-90
2022/01/28 01:21:21;;;;;;;26.17;5.07;;;4.60;84.70;;;;;;4995284;28;20172;-91
2022/01/28 01:23:52;;;;;;;28.37;5.57;;;4.70;84.60;;;;;;4994907;28;20250;-91
2022/01/28 01:26:18;;;;;;;25.13;5.93;;;4.70;84.80;;;;;;4996819;28;20174;-90
2022/01/28 01:28:43;;;;;;;23.93;5.50;;;4.60;85.00;;;;;;4997189;28;20198;-90
2022/01/28 01:31:14;;;;;;;19.63;4.97;;;4.60;85.10;;;;;;4998039;28;20269;-91
2022/01/28 01:34:09;;;;;;;31.23;6.33;;;4.60;85.40;;;;;;4997084;28;20176;-89
2022/01/28 01:36:25;;;;;;;40.17;6.87;;;4.60;85.60;;;;;;4997891;28;20597;-91
2022/01/28 01:38:51;;;;;;;19.27;5.23;;;4.60;85.30;;;;;;4997015;28;20194;-90
2022/01/28 01:41:27;;;;;;;34.17;6.33;;;4.70;84.80;;;;;;4996851;28;20180;-90
2022/01/28 01:43:59;;;;;;;37.47;7.03;;;4.70;84.70;;;;;;4996831;28;20176;-90
2022/01/28 01:54:28;;;;;;;34.97;6.93;;;4.70;84.20;;;;;;4998333;28;20171;-90
2022/01/28 01:56:55;;;;;;;37.07;6.63;;;4.70;84.20;;;;;;4997011;28;20266;-90
2022/01/28 01:59:21;;;;;;;26.73;6.63;;;4.60;84.30;;;;;;4996363;28;20244;-90
2022/01/28 02:01:47;;;;;;;40.60;7.13;;;4.70;84.20;;;;;;4996363;28;20178;-91
2022/01/28 02:04:12;;;;;;;31.87;6.10;;;4.80;83.90;;;;;;4997609;28;20210;-90
2022/01/28 02:06:40;;;;;;;33.93;5.80;;;4.80;83.80;;;;;;4996450;28;20211;-90
2022/01/28 02:09:07;;;;;;;40.77;7.07;;;4.80;83.60;;;;;;4997435;28;20197;-90
2022/01/28 02:11:32;;;;;;;37.77;7.63;;;4.70;83.30;;;;;;4996205;28;20200;-90
2022/01/28 02:13:58;;;;;;;35.77;6.47;;;4.80;82.90;;;;;;4996076;28;20257;-90
2022/01/28 02:16:24;;;;;;;34.47;5.87;;;4.70;82.90;;;;;;4996181;28;20641;-90
2022/01/28 02:18:49;;;;;;;31.30;5.93;;;4.80;82.60;;;;;;4996138;28;20245;-90
2022/01/28 02:21:17;;;;;;;41.23;6.73;;;4.70;83.00;;;;;;4996068;28;20679;-90
2022/01/28 02:23:47;;;;;;;34.40;7.37;;;4.70;83.20;;;;;;4997348;28;20174;-91
2022/01/28 02:26:15;;;;;;;36.37;5.97;;;4.70;83.20;;;;;;4996840;28;20180;-90
2022/01/28 02:28:44;;;;;;;34.53;5.97;;;4.70;83.50;;;;;;4995869;28;20232;-91
2022/01/28 02:31:10;;;;;;;33.47;6.03;;;4.70;83.70;;;;;;4997082;28;20194;-90
2022/01/28 02:33:35;;;;;;;28.97;5.50;;;4.70;83.80;;;;;;4995890;28;20254;-90
2022/01/28 02:36:06;;;;;;;28.17;6.07;;;4.80;83.80;;;;;;4995240;28;20551;-90
2022/01/28 02:38:33;;;;;;;39.53;5.83;;;4.80;83.60;;;;;;4995490;28;20192;-90
2022/01/28 02:41:01;;;;;;;37.97;8.90;;;4.80;84.00;;;;;;4996881;28;20169;-90
2022/01/28 02:43:42;;;;;;;22.77;4.13;;;4.70;84.30;;;;;;4995602;28;20182;-90
2022/01/28 17:53:50;;;;;;;33.90;5.20;;;4.90;83.90;;;;;;5133353;27;20524;-90
2022/01/28 17:56:15;;;;;;;30.77;5.10;;;5.00;82.90;;;;;;5132724;28;20588;-92
2022/01/28 17:58:41;;;;;;;24.60;5.37;;;4.90;82.80;;;;;;5130921;28;20177;-91
2022/01/28 18:01:08;;;;;;;43.67;5.93;;;4.80;82.80;;;;;;5130782;28;20190;-91
2022/01/28 18:03:34;;;;;;;27.13;5.13;;;4.70;83.20;;;;;;5131045;28;20198;-90
2022/01/28 18:06:00;;;;;;;26.80;4.77;;;4.70;82.50;;;;;;5132007;27;20167;-91
2022/01/28 18:08:27;;;;;;;31.47;5.60;;;4.70;82.60;;;;;;5132172;27;20174;-91
2022/01/28 18:10:52;;;;;;;33.33;5.57;;;4.80;82.70;;;;;;5131089;27;20197;-91
2022/01/28 18:13:18;;;;;;;31.00;5.60;;;4.70;82.70;;;;;;5131988;27;20196;-91
2022/01/28 18:15:44;;;;;;;21.30;4.73;;;4.70;82.40;;;;;;5131276;27;20194;-91
2022/01/28 18:18:09;;;;;;;31.33;4.90;;;4.60;82.50;;;;;;5130474;27;20166;-91
2022/01/28 18:20:35;;;;;;;32.53;5.27;;;4.50;83.00;;;;;;5129573;28;20684;-91
2022/01/28 18:23:01;;;;;;;26.70;6.30;;;4.50;83.10;;;;;;5129353;27;20201;-90
2022/01/28 18:25:32;;;;;;;27.80;5.63;;;4.50;82.80;;;;;;5131220;27;20179;-91
2022/01/28 18:27:58;;;;;;;30.23;5.30;;;4.60;82.60;;;;;;5130692;27;20162;-90
2022/01/28 18:30:28;;;;;;;17.10;4.80;;;4.60;83.20;;;;;;5129602;27;20208;-93
2022/01/28 18:32:57;;;;;;;20.97;4.83;;;4.60;83.20;;;;;;5136533;27;20215;-90
2022/01/28 18:35:23;;;;;;;26.63;5.37;;;4.60;82.70;;;;;;5130642;27;20168;-91
2022/01/28 18:37:48;;;;;;;25.97;4.23;;;4.70;82.10;;;;;;5130120;27;20544;-91
2022/01/28 18:40:17;;;;;;;28.60;4.43;;;4.60;82.00;;;;;;5131273;27;20242;-91
2022/01/28 18:42:49;;;;;;;24.47;5.17;;;4.60;82.30;;;;;;5131803;27;20215;-91
2022/01/28 18:45:17;;;;;;;26.70;5.50;;;4.60;82.30;;;;;;5130345;27;20516;-91
2022/01/28 18:47:43;;;;;;;18.13;5.17;;;4.60;82.00;;;;;;5130510;27;20171;-92
2022/01/28 18:50:10;;;;;;;10.17;3.27;;;4.60;82.70;;;;;;5131730;27;20543;-92
2022/01/28 18:52:38;;;;;;;20.53;4.20;;;4.50;82.80;;;;;;5130148;28;20741;-91
2022/01/28 18:55:05;;;;;;;17.80;4.53;;;4.50;82.60;;;;;;5130796;27;20172;-92
2022/01/28 18:57:31;;;;;;;22.00;4.30;;;4.50;82.30;;;;;;5130540;27;20675;-92
2022/01/28 18:59:57;;;;;;;21.33;4.67;;;4.60;82.00;;;;;;5130555;28;20194;-92
2022/01/28 19:02:27;;;;;;;30.53;5.03;;;4.60;81.60;;;;;;5131689;27;20531;-92
2022/01/28 19:04:53;;;;;;;21.83;3.83;;;4.50;81.90;;;;;;5118559;27;20594;-91
2022/01/28 19:07:22;;;;;;;19.80;4.63;;;4.30;82.20;;;;;;5117680;28;20167;-91
2022/01/28 19:09:48;;;;;;;30.65;5.93;;;4.30;82.70;;;;;;5115264;28;20486;-91
2022/01/28 19:12:24;;;;;;;28.70;5.40;;;4.20;83.00;;;;;;5116894;28;21024;-90
2022/01/28 19:14:51;;;;;;;25.23;4.50;;;4.20;83.10;;;;;;5117233;28;20177;-91
2022/01/28 19:17:18;;;;;;;15.50;4.47;;;4.10;83.30;;;;;;5115707;28;20195;-91
2022/01/28 19:19:45;;;;;;;25.40;5.23;;;4.10;83.40;;;;;;5115651;28;20265;-91
2022/01/28 19:22:15;;;;;;;23.23;5.63;;;4.20;83.00;;;;;;5115948;28;20755;-91
2022/01/28 19:24:41;;;;;;;30.33;5.47;;;4.20;83.00;;;;;;5117020;27;20185;-91
2022/01/28 19:27:08;;;;;;;28.10;5.37;;;4.20;82.80;;;;;;5115750;28;20535;-91
2022/01/28 19:29:33;;;;;;;23.60;4.90;;;4.20;82.90;;;;;;5115618;28;20178;-91
2022/01/28 19:31:59;;;;;;;30.40;5.47;;;4.20;82.80;;;;;;5115461;28;20331;-91
2022/01/28 19:34:25;;;;;;;20.23;4.87;;;4.30;82.80;;;;;;5116066;28;20519;-92
2022/01/28 19:36:50;;;;;;;21.27;4.00;;;4.20;82.70;;;;;;5117073;28;20175;-91
2022/01/28 19:39:16;;;;;;;34.30;5.60;;;4.20;82.80;;;;;;5116568;28;20230;-92
2022/01/28 19:41:42;;;;;;;23.00;5.00;;;4.20;82.80;;;;;;5115408;28;20206;-89
2022/01/28 19:44:08;;;;;;;22.80;4.57;;;4.20;82.80;;;;;;5116051;28;20527;-90
2022/01/28 19:46:35;;;;;;;31.07;5.27;;;4.20;82.90;;;;;;5115480;28;20174;-89
2022/01/28 19:49:09;;;;;;;32.20;5.23;;;4.10;83.10;;;;;;5116252;28;20174;-90
2022/01/28 19:51:35;;;;;;;30.67;5.87;;;4.10;82.90;;;;;;5115989;28;20570;-89
2022/01/28 19:54:02;;;;;;;26.67;4.30;;;4.00;83.00;;;;;;5115000;28;20181;-90
2022/01/28 19:56:28;;;;;;;23.50;5.93;;;3.90;83.20;;;;;;5115923;28;20669;-90
2022/01/28 19:58:54;;;;;;;22.10;4.70;;;3.90;83.00;;;;;;5115946;28;20183;-91
2022/01/28 20:01:19;;;;;;;20.37;3.83;;;3.80;83.50;;;;;;5115820;28;20191;-91
2022/01/28 20:03:45;;;;;;;18.60;4.07;;;3.90;83.70;;;;;;5114677;28;20178;-90
2022/01/28 20:06:11;;;;;;;27.20;4.87;;;3.90;83.60;;;;;;5115889;28;20528;-90
2022/01/28 20:08:36;;;;;;;20.43;6.80;;;4.00;83.60;;;;;;5116550;28;20193;-90
2022/01/28 20:11:02;;;;;;;21.87;4.67;;;4.00;83.80;;;;;;5115654;28;20198;-91
2022/01/28 20:13:27;;;;;;;36.53;5.67;;;4.00;83.80;;;;;;5114439;28;20251;-90
2022/01/28 20:15:53;;;;;;;22.40;5.00;;;4.10;83.60;;;;;;5113820;28;20179;-90
2022/01/28 20:18:19;;;;;;;22.20;4.57;;;4.10;83.70;;;;;;5114569;28;20175;-91
2022/01/28 20:20:45;;;;;;;22.30;4.97;;;4.20;83.70;;;;;;5115345;28;20192;-90
2022/01/28 20:23:11;;;;;;;14.43;3.73;;;4.20;83.40;;;;;;5115639;27;20166;-90
2022/01/28 20:25:36;;;;;;;25.07;4.83;;;4.30;83.70;;;;;;5115547;28;20167;-90
2022/01/28 20:28:02;;;;;;;20.03;4.27;;;4.30;83.50;;;;;;5115643;28;20179;-92
2022/01/28 20:30:29;;;;;;;25.80;5.27;;;4.30;83.30;;;;;;5115588;28;20667;-91
2022/01/28 20:32:55;;;;;;;28.90;4.97;;;4.30;83.50;;;;;;5114243;28;20198;-92
2022/01/28 20:35:22;;;;;;;18.57;4.17;;;4.30;83.30;;;;;;5114584;28;20179;-91
2022/01/28 20:37:49;;;;;;;27.03;4.60;;;4.30;83.20;;;;;;5116069;28;20170;-89
2022/01/28 20:40:15;;;;;;;19.13;3.87;;;4.50;82.90;;;;;;5114635;28;20278;-91
2022/01/28 20:42:41;;;;;;;20.23;5.13;;;4.40;83.00;;;;;;5115030;28;20213;-91
2022/01/28 20:45:07;;;;;;;21.03;4.70;;;4.30;83.10;;;;;;5114411;28;20182;-91
2022/01/28 20:47:32;;;;;;;34.17;5.13;;;4.30;83.20;;;;;;5115451;28;20178;-91
2022/01/28 20:49:58;;;;;;;27.07;5.43;;;4.30;83.10;;;;;;5116261;28;20190;-91
2022/01/28 20:52:24;;;;;;;47.03;5.07;;;4.30;83.40;;;;;;5115104;28;20246;-90
2022/01/28 20:54:49;;;;;;;31.80;5.07;;;4.30;83.10;;;;;;5113664;28;20228;-91
2022/01/28 20:57:15;;;;;;;21.30;5.73;;;4.30;83.10;;;;;;5115234;28;20230;-90
2022/01/28 20:59:41;;;;;;;13.63;3.87;;;4.30;83.20;;;;;;5114834;28;20170;-90
2022/01/28 21:02:09;;;;;;;21.10;4.37;;;4.30;83.20;;;;;;5114698;28;20175;-90
2022/01/28 21:04:35;;;;;;;13.27;3.67;;;4.30;83.30;;;;;;5114563;28;20166;-90
2022/01/28 21:07:00;;;;;;;12.33;4.03;;;4.30;83.40;;;;;;5114495;28;20171;-90
2022/01/28 21:09:26;;;;;;;24.83;4.33;;;4.30;83.30;;;;;;5113160;28;20170;-90
2022/01/28 21:11:51;;;;;;;26.03;5.77;;;4.30;83.60;;;;;;5114552;28;20202;-90
2022/01/28 21:14:17;;;;;;;21.60;4.43;;;4.40;83.70;;;;;;5114742;28;20171;-90
2022/01/28 21:16:45;;;;;;;18.83;4.40;;;4.40;83.50;;;;;;5114288;28;20565;-90
2022/01/28 21:19:11;;;;;;;20.23;4.47;;;4.40;83.70;;;;;;5114777;28;20566;-90
2022/01/28 21:21:36;;;;;;;29.37;4.93;;;4.40;83.80;;;;;;5115481;28;20250;-90
2022/01/28 21:24:02;;;;;;;21.10;4.77;;;4.50;83.80;;;;;;5114247;28;20171;-90
2022/01/28 21:26:28;;;;;;;15.23;4.07;;;4.50;83.90;;;;;;5113835;28;20167;-90
2022/01/28 21:28:53;;;;;;;22.13;4.57;;;4.50;83.70;;;;;;5114337;28;20304;-90
2022/01/28 21:31:20;;;;;;;25.40;5.10;;;4.60;83.70;;;;;;5113031;28;20243;-91
2022/01/28 21:33:45;;;;;;;33.00;5.53;;;4.60;83.90;;;;;;5114195;28;20207;-91
2022/01/28 21:36:11;;;;;;;26.67;5.30;;;4.60;84.00;;;;;;5112993;28;20176;-90
2022/01/28 21:38:37;;;;;;;30.10;5.17;;;4.60;83.90;;;;;;5112956;28;20170;-90
2022/01/28 21:41:03;;;;;;;21.00;5.87;;;4.60;83.90;;;;;;5114171;27;20190;-91
2022/01/28 21:43:33;;;;;;;18.73;5.40;;;4.50;84.30;;;;;;5114244;28;20639;-90
2022/01/28 21:45:59;;;;;;;19.70;4.70;;;4.60;84.30;;;;;;5112886;28;20159;-90
2022/01/28 21:48:25;;;;;;;40.17;6.53;;;4.60;84.40;;;;;;5114147;28;20174;-91
2022/01/28 21:50:51;;;;;;;12.47;3.50;;;4.60;84.50;;;;;;5114081;28;20195;-91
2022/01/28 21:53:20;;;;;;;12.57;3.40;;;4.70;84.10;;;;;;5114528;28;20199;-90
2022/01/28 21:55:53;;;;;;;28.43;5.30;;;4.70;84.00;;;;;;5114191;28;20162;-90
2022/01/28 21:58:19;;;;;;;17.77;4.97;;;4.70;84.20;;;;;;5113785;28;20169;-90
2022/01/28 22:00:46;;;;;;;26.03;5.40;;;4.70;84.30;;;;;;5114101;28;20190;-91
2022/01/28 22:03:12;;;;;;;26.80;4.17;;;4.70;84.30;;;;;;5114061;28;20182;-91
2022/01/28 22:05:38;;;;;;;21.37;4.57;;;4.80;84.30;;;;;;5114786;28;20197;-90
2022/01/28 22:08:05;;;;;;;13.10;3.47;;;4.80;84.00;;;;;;5114086;28;20196;-90
2022/01/28 22:10:33;;;;;;;13.63;3.87;;;4.80;84.20;;;;;;5114002;28;20194;-90
2022/01/28 22:12:59;;;;;;;20.43;4.27;;;4.80;84.10;;;;;;5114063;28;20190;-90
2022/01/28 22:15:24;;;;;;;22.90;4.77;;;4.90;83.70;;;;;;5114111;28;20215;-90
2022/01/28 22:17:50;;;;;;;28.50;5.17;;;4.90;83.80;;;;;;5114038;28;20173;-92
2022/01/28 22:20:16;;;;;;;19.23;4.60;;;4.80;83.70;;;;;;5115760;28;20190;-91
2022/01/28 22:22:42;;;;;;;22.47;5.17;;;4.80;84.10;;;;;;5112553;28;20516;-92
2022/01/28 22:25:09;;;;;;;13.13;4.20;;;4.90;84.20;;;;;;5113796;28;20247;-90
2022/01/28 22:27:35;;;;;;;23.80;6.23;;;4.80;84.30;;;;;;5113455;28;20175;-90
2022/01/28 22:30:02;;;;;;;21.47;5.30;;;4.90;84.20;;;;;;5112110;28;20199;-92
2022/01/28 22:32:27;;;;;;;20.03;5.70;;;5.00;84.10;;;;;;5113302;28;20232;-90
2022/01/28 22:34:53;;;;;;;13.17;5.17;;;4.90;84.40;;;;;;5113353;28;20175;-90
2022/01/28 22:37:18;;;;;;;21.93;5.23;;;5.00;84.40;;;;;;5113626;28;20173;-90
2022/01/28 22:39:44;;;;;;;25.87;6.93;;;5.00;84.60;;;;;;5116031;28;20685;-89
2022/01/28 22:42:09;;;;;;;22.03;6.03;;;5.00;84.60;;;;;;5116300;28;20201;-90
2022/01/28 22:44:35;;;;;;;21.37;6.20;;;5.00;84.50;;;;;;5116237;28;20188;-91
2022/01/28 22:47:01;;;;;;;16.30;7.13;;;5.10;84.60;;;;;;5117341;28;20514;-91
2022/01/28 22:49:26;;;;;;;17.97;6.73;;;5.20;84.50;;;;;;5116489;28;20184;-91
2022/01/28 22:51:52;;;;;;;11.13;5.13;;;5.10;84.60;;;;;;5115896;28;20696;-91
2022/01/28 22:54:17;;;;;;;10.77;4.67;;;5.10;84.80;;;;;;5117399;28;20155;-91
2022/01/28 22:56:43;;;;;;;29.10;9.23;;;5.20;84.90;;;;;;5115693;28;20180;-91
2022/01/28 22:59:09;;;;;;;18.10;7.07;;;5.10;85.00;;;;;;5116095;28;20211;-91
2022/01/28 23:01:34;;;;;;;26.53;9.57;;;5.10;85.20;;;;;;5115702;28;20194;-90
2022/01/28 23:04:00;;;;;;;17.67;6.03;;;5.20;84.90;;;;;;5117311;28;20181;-91
2022/01/28 23:06:28;;;;;;;25.87;7.47;;;5.20;85.10;;;;;;5117712;28;20282;-91
2022/01/28 23:08:55;;;;;;;24.27;7.83;;;5.10;85.30;;;;;;5117030;28;20169;-91
2022/01/28 23:11:20;;;;;;;18.83;8.30;;;5.10;85.40;;;;;;5115933;28;20220;-91
2022/01/28 23:13:46;;;;;;;19.03;7.17;;;5.10;85.70;;;;;;5117127;28;20271;-91
2022/01/28 23:16:12;;;;;;;16.83;7.03;;;5.10;85.70;;;;;;5116932;28;20674;-91
2022/01/28 23:18:37;;;;;;;26.07;11.03;;;5.10;85.60;;;;;;5115336;28;20180;-91
2022/01/28 23:21:03;;;;;;;24.53;9.03;;;5.20;85.70;;;;;;5115491;28;20185;-91
2022/01/28 23:23:29;;;;;;;37.70;11.60;;;5.20;85.90;;;;;;5115387;28;20180;-91
2022/01/28 23:25:54;;;;;;;20.63;8.03;;;5.20;86.10;;;;;;5115321;28;20178;-91
2022/01/28 23:28:20;;;;;;;19.80;9.20;;;5.20;86.20;;;;;;5115560;28;20266;-91
2022/01/28 23:30:47;;;;;;;27.23;12.80;;;5.20;86.20;;;;;;5115635;28;20207;-90
2022/01/28 23:33:14;;;;;;;21.83;9.90;;;5.30;86.20;;;;;;5115585;28;20290;-91
2022/01/28 23:35:40;;;;;;;17.13;8.63;;;5.30;86.40;;;;;;5116368;28;20648;-90
2022/01/28 23:38:06;;;;;;;20.10;10.70;;;5.20;86.70;;;;;;5114948;28;20256;-90
2022/01/28 23:40:33;;;;;;;25.40;10.50;;;5.20;86.80;;;;;;5116536;28;20190;-91
2022/01/28 23:42:59;;;;;;;29.40;14.17;;;5.30;86.70;;;;;;5116064;28;20222;-90
2022/01/28 23:45:26;;;;;;;36.90;14.80;;;5.30;86.90;;;;;;5114767;28;20184;-90
2022/01/28 23:47:51;;;;;;;18.97;11.10;;;5.30;87.00;;;;;;5116086;28;20181;-90
2022/01/28 23:50:17;;;;;;;28.37;13.97;;;5.40;86.80;;;;;;5115866;28;20199;-90
2022/01/28 23:52:43;;;;;;;20.37;10.50;;;5.40;86.80;;;;;;5115645;28;20214;-91
2022/01/28 23:55:09;;;;;;;28.23;13.27;;;5.40;87.00;;;;;;5114809;28;20672;-90
2022/01/28 23:57:35;;;;;;;27.33;13.87;;;5.30;87.40;;;;;;5115924;28;20164;-90
